createdAt,value
2018-06-07T00:01:49.724Z,46.40
2018-06-07T00:04:17.976Z,46.20
2018-06-07T00:06:47.033Z,46.30
2018-06-07T00:09:15.271Z,46.30
2018-06-07T00:11:43.587Z,46.50
2018-06-07T00:14:11.828Z,46.00
2018-06-07T00:16:40.083Z,46.00
2018-06-07T00:19:08.343Z,45.90
2018-06-07T00:21:36.599Z,46.40
2018-06-07T00:24:04.840Z,48.30
2018-06-07T00:26:33.095Z,46.70
2018-06-07T00:29:01.345Z,46.30
2018-06-07T00:31:29.597Z,46.80
2018-06-07T00:33:57.897Z,49.70
2018-06-07T00:36:26.187Z,47.50
2018-06-07T00:38:54.425Z,47.10
2018-06-07T00:41:22.691Z,46.80
2018-06-07T00:43:50.977Z,47.60
2018-06-07T00:46:19.308Z,46.70
2018-06-07T00:48:47.517Z,46.90
2018-06-07T00:51:15.788Z,47.10
2018-06-07T00:53:44.073Z,52.40
2018-06-07T00:56:12.366Z,47.30
2018-06-07T00:58:40.611Z,47.20
2018-06-07T01:01:08.873Z,51.00
2018-06-07T01:03:37.118Z,49.00
2018-06-07T01:06:05.381Z,55.00
2018-06-07T01:08:33.666Z,53.10
2018-06-07T01:11:01.915Z,51.20
2018-06-07T01:13:30.159Z,52.70
2018-06-07T01:15:58.429Z,48.70
2018-06-07T01:18:27.434Z,48.40
2018-06-07T01:20:55.690Z,48.30
2018-06-07T01:23:24.744Z,47.60
2018-06-07T01:25:52.995Z,47.60
2018-06-07T01:28:21.278Z,47.10
2018-06-07T01:30:49.675Z,47.60
2018-06-07T01:33:36.821Z,47.90
2018-06-07T01:36:05.092Z,48.50
2018-06-07T01:38:50.187Z,48.80
2018-06-07T01:41:19.223Z,50.60
2018-06-07T01:43:47.466Z,47.70
2018-06-07T01:46:16.519Z,47.20
2018-06-07T01:48:44.806Z,47.20
2018-06-07T01:51:13.851Z,47.40
2018-06-07T01:53:42.112Z,47.40
2018-06-07T01:56:11.169Z,48.90
2018-06-07T01:58:39.458Z,49.00
2018-06-07T02:01:07.738Z,49.70
2018-06-07T02:03:35.994Z,50.00
2018-06-07T02:06:04.238Z,50.20
2018-06-07T02:08:32.544Z,49.00
2018-06-07T02:11:00.784Z,51.30
2018-06-07T02:13:29.087Z,48.70
2018-06-07T02:15:57.357Z,47.90
2018-06-07T02:18:25.602Z,47.80
2018-06-07T02:20:54.617Z,47.40
2018-06-07T02:23:22.906Z,47.40
2018-06-07T02:25:51.140Z,47.90
2018-06-07T02:28:20.158Z,47.50
2018-06-07T02:30:48.454Z,47.50
2018-06-07T02:33:16.707Z,47.90
2018-06-07T02:35:45.003Z,47.60
2018-06-07T02:38:13.298Z,47.90
2018-06-07T02:40:41.583Z,47.50
2018-06-07T02:43:09.831Z,47.80
2018-06-07T02:45:38.075Z,47.70
2018-06-07T02:48:07.108Z,48.10
2018-06-07T02:50:35.388Z,48.10
2018-06-07T02:53:03.659Z,47.90
2018-06-07T02:55:31.931Z,47.90
2018-06-07T02:58:00.183Z,48.60
2018-06-07T03:00:29.241Z,47.90
2018-06-07T03:02:57.487Z,47.90
2018-06-07T03:05:25.774Z,48.10
2018-06-07T03:07:54.061Z,49.00
2018-06-07T03:10:22.336Z,48.90
2018-06-07T03:12:50.583Z,52.90
2018-06-07T03:15:18.831Z,48.70
2018-06-07T03:17:47.899Z,49.20
2018-06-07T03:20:16.139Z,49.20
2018-06-07T03:22:44.399Z,48.80
2018-06-07T03:25:12.643Z,48.30
2018-06-07T03:27:40.901Z,48.40
2018-06-07T03:30:09.147Z,50.80
2018-06-07T03:32:37.416Z,49.00
2018-06-07T03:35:05.667Z,49.90
2018-06-07T03:37:33.927Z,48.90
2018-06-07T03:40:02.210Z,57.80
2018-06-07T03:42:30.507Z,51.60
2018-06-07T03:44:59.549Z,53.60
2018-06-07T03:47:27.846Z,53.70
2018-06-07T03:49:56.846Z,51.90
2018-06-07T03:52:25.104Z,51.80
2018-06-07T03:54:53.349Z,55.60
2018-06-07T03:57:21.607Z,64.70
2018-06-07T03:59:50.619Z,55.30
2018-06-07T04:02:18.918Z,55.30
2018-06-07T04:04:47.163Z,56.70
2018-06-07T04:07:16.172Z,62.60
2018-06-07T04:09:44.417Z,62.60
2018-06-07T04:12:13.443Z,52.80
2018-06-07T04:14:41.683Z,52.80
2018-06-07T04:17:10.758Z,52.10
2018-06-07T04:19:38.993Z,52.10
2018-06-07T04:22:07.245Z,53.50
2018-06-07T04:24:36.259Z,51.80
2018-06-07T04:27:04.515Z,51.70
2018-06-07T04:29:33.583Z,52.20
2018-06-07T04:32:01.857Z,52.20
2018-06-07T04:34:30.078Z,51.80
2018-06-07T04:36:58.386Z,51.90
2018-06-07T04:39:26.621Z,52.40
2018-06-07T04:41:55.683Z,53.00
2018-06-07T04:44:25.435Z,51.60
2018-06-07T04:46:53.684Z,51.60
2018-06-07T04:49:21.997Z,51.70
2018-06-07T04:51:50.281Z,51.40
2018-06-07T04:54:18.576Z,51.20
2018-06-07T04:56:46.855Z,51.10
2018-06-07T04:59:15.151Z,51.40
2018-06-07T05:01:43.393Z,51.20
2018-06-07T05:04:11.655Z,52.50
2018-06-07T05:06:39.951Z,51.50
2018-06-07T05:09:08.953Z,51.10
2018-06-07T05:11:37.240Z,51.10
2018-06-07T05:14:05.482Z,52.20
2018-06-07T05:16:33.733Z,51.50
2018-06-07T05:19:02.797Z,51.00
2018-06-07T05:21:31.090Z,51.40
2018-06-07T05:23:59.381Z,52.10
2018-06-07T05:26:27.640Z,51.60
2018-06-07T05:28:55.895Z,51.30
2018-06-07T05:31:24.142Z,51.20
2018-06-07T05:33:52.461Z,51.20
2018-06-07T05:36:20.697Z,51.70
2018-06-07T05:38:48.963Z,51.50
2018-06-07T05:41:17.974Z,51.60
2018-06-07T05:43:46.544Z,51.60
2018-06-07T05:46:15.548Z,51.30
2018-06-07T05:48:43.806Z,51.30
2018-06-07T05:51:12.854Z,50.90
2018-06-07T05:53:41.115Z,50.80
2018-06-07T05:56:09.350Z,51.80
2018-06-07T05:58:38.369Z,51.20
2018-06-07T06:01:06.655Z,51.10
2018-06-07T06:03:35.701Z,51.00
2018-06-07T06:06:03.952Z,51.10
2018-06-07T06:08:32.275Z,56.10
2018-06-07T06:11:01.282Z,53.80
2018-06-07T06:13:30.351Z,52.90
2018-06-07T06:15:58.582Z,52.90
2018-06-07T06:18:26.897Z,53.20
2018-06-07T06:20:55.140Z,59.90
2018-06-07T06:23:23.442Z,60.60
2018-06-07T06:25:51.723Z,55.60
2018-06-07T06:28:19.981Z,60.50
2018-06-07T06:30:48.264Z,62.00
2018-06-07T06:33:16.517Z,63.00
2018-06-07T06:35:44.792Z,63.50
2018-06-07T06:38:32.937Z,62.60
2018-06-07T06:41:01.233Z,62.10
2018-06-07T06:43:29.534Z,62.20
2018-06-07T06:45:57.818Z,57.50
2018-06-07T06:48:26.120Z,58.50
2018-06-07T06:50:55.128Z,54.70
2018-06-07T06:53:23.392Z,54.70
2018-06-07T06:55:51.639Z,54.30
2018-06-07T06:58:19.949Z,56.10
2018-06-07T07:00:49.227Z,55.20
2018-06-07T07:03:17.517Z,55.20
2018-06-07T07:05:46.524Z,54.90
2018-06-07T07:08:14.839Z,54.80
2018-06-07T07:10:43.113Z,57.10
2018-06-07T07:13:11.398Z,56.30
2018-06-07T07:15:39.685Z,54.80
2018-06-07T07:18:07.997Z,55.90
2018-06-07T07:20:37.056Z,57.10
2018-06-07T07:23:05.350Z,57.10
2018-06-07T07:25:33.599Z,57.30
2018-06-07T07:28:01.878Z,57.50
2018-06-07T07:30:30.152Z,57.70
2018-06-07T07:32:58.442Z,57.50
2018-06-07T07:35:26.691Z,55.80
2018-06-07T07:37:54.987Z,54.90
2018-06-07T07:40:23.240Z,56.60
2018-06-07T07:42:51.543Z,57.70
2018-06-07T07:45:19.818Z,56.70
2018-06-07T07:47:48.117Z,56.30
2018-06-07T07:50:16.394Z,56.30
2018-06-07T07:52:44.643Z,56.20
2018-06-07T07:55:12.897Z,56.80
2018-06-07T07:57:41.202Z,56.70
2018-06-07T08:00:09.502Z,57.40
2018-06-07T08:02:37.860Z,56.90
2018-06-07T08:05:06.131Z,56.10
2018-06-07T08:07:34.386Z,55.80
2018-06-07T08:10:02.687Z,54.80
2018-06-07T08:12:30.978Z,55.90
2018-06-07T08:14:59.219Z,55.30
2018-06-07T08:17:27.526Z,55.90
2018-06-07T08:19:55.808Z,55.00
2018-06-07T08:22:24.102Z,55.90
2018-06-07T08:24:52.331Z,55.00
2018-06-07T08:27:20.633Z,54.50
2018-06-07T08:29:49.031Z,53.90
2018-06-07T08:32:17.218Z,53.60
2018-06-07T08:34:45.499Z,53.80
2018-06-07T08:37:13.786Z,53.60
2018-06-07T08:39:42.871Z,54.40
2018-06-07T08:42:11.159Z,54.00
2018-06-07T08:44:40.213Z,53.90
2018-06-07T08:47:08.507Z,53.20
2018-06-07T08:49:36.770Z,53.80
2018-06-07T08:52:05.137Z,53.30
2018-06-07T08:54:33.403Z,53.80
2018-06-07T08:57:01.650Z,53.50
2018-06-07T08:59:30.684Z,53.30
2018-06-07T09:01:58.989Z,53.20
2018-06-07T09:04:27.302Z,53.20
2018-06-07T09:06:56.336Z,53.00
2018-06-07T09:09:24.627Z,52.90
2018-06-07T09:11:52.880Z,53.50
2018-06-07T09:14:21.131Z,53.00
2018-06-07T09:16:50.147Z,53.10
2018-06-07T09:19:18.450Z,53.10
2018-06-07T09:21:46.695Z,53.00
2018-06-07T09:24:14.966Z,53.00
2018-06-07T09:26:43.212Z,52.60
2018-06-07T09:29:11.571Z,52.60
2018-06-07T09:31:39.879Z,52.30
2018-06-07T09:34:08.140Z,52.30
2018-06-07T09:36:36.430Z,52.20
2018-06-07T09:39:04.685Z,52.30
2018-06-07T09:41:33.042Z,52.20
2018-06-07T09:44:01.266Z,52.10
2018-06-07T09:46:30.286Z,50.30
2018-06-07T09:48:58.543Z,50.30
2018-06-07T09:51:27.553Z,51.50
2018-06-07T09:53:55.809Z,51.50
2018-06-07T09:56:24.877Z,51.30
2018-06-07T09:58:53.190Z,51.30
2018-06-07T10:01:22.238Z,50.60
2018-06-07T10:03:50.529Z,50.70
2018-06-07T10:06:18.840Z,51.10
2018-06-07T10:08:48.390Z,51.30
2018-06-07T10:11:16.630Z,51.30
2018-06-07T10:13:44.891Z,51.00
2018-06-07T10:16:13.165Z,51.20
2018-06-07T10:18:41.386Z,51.00
2018-06-07T10:21:09.777Z,50.30
2018-06-07T10:23:38.024Z,48.50
2018-06-07T10:26:06.266Z,50.80
2018-06-07T10:28:34.587Z,51.00
2018-06-07T10:31:02.885Z,51.30
2018-06-07T10:33:31.178Z,50.10
2018-06-07T10:35:59.427Z,50.60
2018-06-07T10:38:27.733Z,50.20
2018-06-07T10:40:55.986Z,48.60
2018-06-07T10:43:24.265Z,50.00
2018-06-07T10:45:52.499Z,49.30
2018-06-07T10:48:21.554Z,49.50
2018-06-07T10:50:49.857Z,49.50
2018-06-07T10:53:18.158Z,49.50
2018-06-07T10:55:47.168Z,48.60
2018-06-07T10:58:15.410Z,48.60
2018-06-07T11:00:44.414Z,49.10
2018-06-07T11:03:13.439Z,49.00
2018-06-07T11:05:41.700Z,49.00
2018-06-07T11:08:11.444Z,49.60
2018-06-07T11:10:39.738Z,49.70
2018-06-07T11:13:08.604Z,49.20
2018-06-07T11:15:36.867Z,48.60
2018-06-07T11:18:05.932Z,48.60
2018-06-07T11:20:34.176Z,48.50
2018-06-07T11:23:02.454Z,47.70
2018-06-07T11:25:30.770Z,48.70
2018-06-07T11:27:59.827Z,47.20
2018-06-07T11:30:28.121Z,47.80
2018-06-07T11:32:56.418Z,47.80
2018-06-07T11:35:24.699Z,43.80
2018-06-07T11:37:53.762Z,44.60
2018-06-07T11:40:22.019Z,44.50
2018-06-07T11:42:50.291Z,47.60
2018-06-07T11:45:18.527Z,47.00
2018-06-07T11:47:47.634Z,43.40
2018-06-07T11:50:16.694Z,43.40
2018-06-07T11:52:44.966Z,43.50
2018-06-07T11:55:13.250Z,40.20
2018-06-07T11:57:41.559Z,41.50
2018-06-07T12:00:10.642Z,38.60
2018-06-07T12:02:38.925Z,38.60
2018-06-07T12:05:07.973Z,40.20
2018-06-07T12:07:36.228Z,40.10
2018-06-07T12:10:04.485Z,41.10
2018-06-07T12:12:32.748Z,43.10
2018-06-07T12:15:01.830Z,42.90
2018-06-07T12:17:30.072Z,42.90
2018-06-07T12:19:58.366Z,44.20
2018-06-07T12:22:26.654Z,46.00
2018-06-07T12:24:54.950Z,45.40
2018-06-07T12:27:23.979Z,42.90
2018-06-07T12:29:52.289Z,43.00
2018-06-07T12:32:20.574Z,40.70
2018-06-07T12:34:48.828Z,40.30
2018-06-07T12:37:17.130Z,43.50
2018-06-07T12:39:45.431Z,39.60
2018-06-07T12:42:14.489Z,40.50
2018-06-07T12:44:42.741Z,40.40
2018-06-07T12:47:11.035Z,39.90
2018-06-07T12:49:39.282Z,38.90
2018-06-07T12:52:07.541Z,42.20
2018-06-07T12:54:36.660Z,38.50
2018-06-07T12:57:04.975Z,38.10
2018-06-07T12:59:33.283Z,36.40
2018-06-07T13:02:01.535Z,38.20
2018-06-07T13:04:29.794Z,39.10
2018-06-07T13:06:58.105Z,41.00
2018-06-07T13:09:26.382Z,41.40
2018-06-07T13:11:54.632Z,40.50
2018-06-07T13:14:22.935Z,41.40
2018-06-07T13:16:51.216Z,33.30
2018-06-07T13:19:19.463Z,35.30
2018-06-07T13:21:47.707Z,37.50
2018-06-07T13:24:16.021Z,39.40
2018-06-07T13:26:44.265Z,36.60
2018-06-07T13:29:12.527Z,37.70
2018-06-07T13:31:40.822Z,39.10
2018-06-07T13:34:09.198Z,39.80
2018-06-07T13:36:37.367Z,35.30
2018-06-07T13:39:05.644Z,37.90
2018-06-07T13:41:33.889Z,37.50
2018-06-07T13:44:03.650Z,40.70
2018-06-07T13:46:31.937Z,40.70
2018-06-07T13:49:00.236Z,32.90
2018-06-07T13:51:28.478Z,34.40
2018-06-07T13:53:56.748Z,37.20
2018-06-07T13:56:25.034Z,38.70
2018-06-07T13:58:53.331Z,38.50
2018-06-07T14:01:21.570Z,38.00
2018-06-07T14:03:49.866Z,38.50
2018-06-07T14:06:18.148Z,37.50
2018-06-07T14:08:46.446Z,38.90
2018-06-07T14:11:14.693Z,38.30
2018-06-07T14:13:42.954Z,39.70
2018-06-07T14:16:11.955Z,39.70
2018-06-07T14:18:40.215Z,39.70
2018-06-07T14:21:09.278Z,40.70
2018-06-07T14:23:37.536Z,40.70
2018-06-07T14:26:05.804Z,41.40
2018-06-07T14:28:34.094Z,41.20
2018-06-07T14:31:02.340Z,41.40
2018-06-07T14:33:30.604Z,43.80
2018-06-07T14:35:59.612Z,46.60
2018-06-07T14:38:27.879Z,46.50
2018-06-07T14:40:56.173Z,45.80
2018-06-07T14:43:24.442Z,45.90
2018-06-07T14:45:53.487Z,45.00
2018-06-07T14:48:21.730Z,45.20
2018-06-07T14:50:49.996Z,46.90
2018-06-07T14:53:18.251Z,48.50
2018-06-07T14:55:47.321Z,49.40
2018-06-07T14:58:15.601Z,49.30
2018-06-07T15:00:43.909Z,49.60
2018-06-07T15:03:12.151Z,49.80
2018-06-07T15:05:40.419Z,50.20
2018-06-07T15:08:08.718Z,49.30
2018-06-07T15:10:37.044Z,48.60
2018-06-07T15:13:05.285Z,47.60
2018-06-07T15:15:34.333Z,50.80
2018-06-07T15:18:02.637Z,50.80
2018-06-07T15:20:30.886Z,51.50
2018-06-07T15:22:59.182Z,49.50
2018-06-07T15:25:27.543Z,50.80
2018-06-07T15:27:55.845Z,52.10
2018-06-07T15:30:24.084Z,53.00
2018-06-07T15:32:52.377Z,53.20
2018-06-07T15:35:20.622Z,51.10
2018-06-07T15:37:48.895Z,53.40
2018-06-07T15:40:17.152Z,52.10
2018-06-07T15:42:46.160Z,50.90
2018-06-07T15:45:14.484Z,50.80
2018-06-07T15:47:42.758Z,51.90
2018-06-07T15:50:11.067Z,49.70
2018-06-07T15:52:39.330Z,50.20
2018-06-07T15:55:07.579Z,49.30
2018-06-07T15:57:35.859Z,48.80
2018-06-07T16:00:04.119Z,49.00
2018-06-07T16:02:32.374Z,50.90
2018-06-07T16:05:01.396Z,48.60
2018-06-07T16:07:29.683Z,48.70
2018-06-07T16:09:57.979Z,48.50
2018-06-07T16:12:26.285Z,48.90
2018-06-07T16:14:54.527Z,49.50
2018-06-07T16:17:22.821Z,49.60
2018-06-07T16:19:51.065Z,48.80
2018-06-07T16:22:19.324Z,49.00
2018-06-07T16:24:47.573Z,49.70
2018-06-07T16:27:16.609Z,48.90
2018-06-07T16:29:44.891Z,49.00
2018-06-07T16:32:13.126Z,48.90
2018-06-07T16:34:42.147Z,50.10
2018-06-07T16:37:10.447Z,50.00
2018-06-07T16:39:38.696Z,50.80
2018-06-07T16:42:07.017Z,50.20
2018-06-07T16:44:35.345Z,48.50
2018-06-07T16:47:04.397Z,50.70
2018-06-07T16:49:32.634Z,50.70
2018-06-07T16:52:00.947Z,51.70
2018-06-07T16:54:29.204Z,51.20
2018-06-07T16:56:57.451Z,49.50
2018-06-07T16:59:25.762Z,49.30
2018-06-07T17:01:54.040Z,48.50
2018-06-07T17:04:22.342Z,49.40
2018-06-07T17:06:50.623Z,49.10
2018-06-07T17:09:18.878Z,48.50
2018-06-07T17:11:47.147Z,49.20
2018-06-07T17:14:15.449Z,50.10
2018-06-07T17:16:43.766Z,49.50
2018-06-07T17:19:12.860Z,50.70
2018-06-07T17:21:41.860Z,50.70
2018-06-07T17:24:10.224Z,50.70
2018-06-07T17:26:39.290Z,50.10
2018-06-07T17:29:07.587Z,50.00
2018-06-07T17:31:36.653Z,52.00
2018-06-07T17:34:04.952Z,51.90
2018-06-07T17:36:33.207Z,51.00
2018-06-07T17:39:01.459Z,49.40
2018-06-07T17:41:29.719Z,51.10
2018-06-07T17:43:58.942Z,51.00
2018-06-07T17:46:27.247Z,49.20
2018-06-07T17:48:55.499Z,49.00
2018-06-07T17:51:23.785Z,49.20
2018-06-07T17:53:52.040Z,51.90
2018-06-07T17:56:20.329Z,48.60
2018-06-07T17:58:48.593Z,48.60
2018-06-07T18:01:16.846Z,51.30
2018-06-07T18:03:45.169Z,49.10
2018-06-07T18:06:13.514Z,48.40
2018-06-07T18:08:42.624Z,52.00
2018-06-07T18:11:10.920Z,51.80
2018-06-07T18:13:39.199Z,52.30
2018-06-07T18:16:07.454Z,50.60
2018-06-07T18:18:35.817Z,51.80
2018-06-07T18:21:04.050Z,49.90
2018-06-07T18:23:32.354Z,52.10
2018-06-07T18:26:01.438Z,50.50
2018-06-07T18:28:29.688Z,50.50
2018-06-07T18:30:57.982Z,49.60
2018-06-07T18:33:26.238Z,48.60
2018-06-07T18:35:54.539Z,48.40
2018-06-07T18:38:22.851Z,49.00
2018-06-07T18:40:51.912Z,49.70
2018-06-07T18:43:20.205Z,49.70
2018-06-07T18:45:48.451Z,49.10
2018-06-07T18:48:16.783Z,49.90
2018-06-07T18:50:45.899Z,49.10
2018-06-07T18:53:14.281Z,49.10
2018-06-07T18:55:42.612Z,49.40
2018-06-07T18:58:10.897Z,54.20
2018-06-07T19:00:39.192Z,50.50
2018-06-07T19:03:08.336Z,49.50
2018-06-07T19:05:36.809Z,49.50
2018-06-07T19:08:05.085Z,49.80
2018-06-07T19:10:34.323Z,58.60
2018-06-07T19:13:02.587Z,53.10
2018-06-07T19:15:30.948Z,51.00
2018-06-07T19:17:59.222Z,50.10
2018-06-07T19:20:42.350Z,50.30
2018-06-07T19:23:10.660Z,49.60
2018-06-07T19:25:38.956Z,50.60
2018-06-07T19:28:08.023Z,50.90
2018-06-07T19:30:36.276Z,50.80
2018-06-07T19:33:20.366Z,49.80
2018-06-07T19:35:48.644Z,54.00
2018-06-07T19:38:16.915Z,50.30
2018-06-07T19:41:04.071Z,51.00
2018-06-07T19:43:32.307Z,51.20
2018-06-07T19:46:01.646Z,53.10
2018-06-07T19:48:30.001Z,53.10
2018-06-07T19:50:58.391Z,54.10
2018-06-07T19:53:27.449Z,51.20
2018-06-07T19:55:55.738Z,51.20
2018-06-07T19:58:24.037Z,50.70
2018-06-07T20:00:53.053Z,53.50
2018-06-07T20:03:21.404Z,53.50
2018-06-07T20:05:50.487Z,50.20
2018-06-07T20:08:18.777Z,50.20
2018-06-07T20:10:47.833Z,49.70
2018-06-07T20:13:16.133Z,49.70
2018-06-07T20:15:44.417Z,50.60
2018-06-07T20:18:12.703Z,52.40
2018-06-07T20:20:41.747Z,51.00
2018-06-07T20:23:10.173Z,51.10
2018-06-07T20:25:38.489Z,50.30
2018-06-07T20:28:06.775Z,50.30
2018-06-07T20:30:35.100Z,50.60
2018-06-07T20:33:03.448Z,51.90
2018-06-07T20:35:31.708Z,51.00
2018-06-07T20:38:00.117Z,50.10
2018-06-07T20:40:28.504Z,50.10
2018-06-07T20:42:56.737Z,52.20
2018-06-07T20:45:25.063Z,50.60
2018-06-07T20:47:53.419Z,50.20
2018-06-07T20:50:21.692Z,52.40
2018-06-07T20:52:49.968Z,50.60
2018-06-07T20:55:18.248Z,50.70
2018-06-07T20:57:46.524Z,51.20
2018-06-07T21:00:14.837Z,53.10
2018-06-07T21:02:43.127Z,51.10
2018-06-07T21:05:11.411Z,50.80
2018-06-07T21:07:40.467Z,52.60
2018-06-07T21:10:08.766Z,52.50
2018-06-07T21:12:37.073Z,51.30
2018-06-07T21:15:05.396Z,50.60
2018-06-07T21:17:33.661Z,52.50
2018-06-07T21:20:01.940Z,52.70
2018-06-07T21:22:30.250Z,52.00
2018-06-07T21:24:58.586Z,52.60
2018-06-07T21:27:26.840Z,51.40
2018-06-07T21:29:55.145Z,51.30
2018-06-07T21:32:23.401Z,60.10
2018-06-07T21:34:51.903Z,53.00
2018-06-07T21:37:20.239Z,52.70
2018-06-07T21:39:49.303Z,51.70
2018-06-07T21:42:17.759Z,51.70
2018-06-07T21:44:46.059Z,51.60
2018-06-07T21:47:14.306Z,51.80
2018-06-07T21:49:42.615Z,51.30
2018-06-07T21:52:10.852Z,58.60
2018-06-07T21:54:39.115Z,54.60
2018-06-07T21:57:07.414Z,56.80
2018-06-07T21:59:36.268Z,52.60
2018-06-07T22:02:05.268Z,52.60
2018-06-07T22:04:34.282Z,54.00
2018-06-07T22:07:02.539Z,54.00
2018-06-07T22:09:31.537Z,52.00
2018-06-07T22:11:59.764Z,52.00
2018-06-07T22:14:28.002Z,51.60
2018-06-07T22:16:56.247Z,52.00
2018-06-07T22:19:25.269Z,52.80
2018-06-07T22:21:53.497Z,52.80
2018-06-07T22:24:21.730Z,55.10
2018-06-07T22:26:50.025Z,52.30
2018-06-07T22:29:18.995Z,52.40
2018-06-07T22:31:47.245Z,52.40
2018-06-07T22:34:16.248Z,53.10
2018-06-07T22:36:44.489Z,53.10
2018-06-07T22:39:12.741Z,52.90
2018-06-07T22:41:40.976Z,52.30
2018-06-07T22:44:09.973Z,52.00
2018-06-07T22:46:38.230Z,52.00
2018-06-07T22:49:06.475Z,52.20
2018-06-07T22:51:34.708Z,51.70
2018-06-07T22:54:02.962Z,51.90
2018-06-07T22:56:31.196Z,54.10
2018-06-07T22:58:59.436Z,54.60
2018-06-07T23:01:27.690Z,56.40
2018-06-07T23:03:56.691Z,52.30
2018-06-07T23:06:25.699Z,54.70
2018-06-07T23:08:53.935Z,54.70
2018-06-07T23:11:22.171Z,54.30
2018-06-07T23:13:50.428Z,54.10
2018-06-07T23:16:18.670Z,53.50
2018-06-07T23:18:46.902Z,52.60
2018-06-07T23:21:15.144Z,52.50
2018-06-07T23:23:44.140Z,54.40
2018-06-07T23:26:13.157Z,57.30
2018-06-07T23:28:41.391Z,57.20
2018-06-07T23:31:09.643Z,53.80
2018-06-07T23:33:37.882Z,53.70
2018-06-07T23:36:06.143Z,54.20
2018-06-07T23:38:35.149Z,54.90
2018-06-07T23:41:03.386Z,55.00
2018-06-07T23:43:31.620Z,57.80
2018-06-07T23:45:59.856Z,56.70
2018-06-07T23:48:28.872Z,64.50
2018-06-07T23:50:57.096Z,64.70
2018-06-07T23:53:25.342Z,56.00
2018-06-07T23:55:53.583Z,55.10
2018-06-07T23:58:22.593Z,54.20
